sensor_id;sensor_type;location;lat;lon;timestamp;temperature;humidity
40291;DHT22;26000;48.304;13.626;2023-04-06T00:01:38;2.10;99.90
40291;DHT22;26000;48.304;13.626;2023-04-06T00:04:05;2.00;99.90
40291;DHT22;26000;48.304;13.626;2023-04-06T00:06:31;1.90;99.90
40291;DHT22;26000;48.304;13.626;2023-04-06T00:08:57;1.90;99.90
40291;DHT22;26000;48.304;13.626;2023-04-06T00:11:23;1.90;99.90
40291;DHT22;26000;48.304;13.626;2023-04-06T00:13:49;1.90;99.90
40291;DHT22;26000;48.304;13.626;2023-04-06T00:16:15;1.90;99.90
40291;DHT22;26000;48.304;13.626;2023-04-06T00:18:41;1.90;99.90
40291;DHT22;26000;48.304;13.626;2023-04-06T00:21:06;1.90;99.90
40291;DHT22;26000;48.304;13.626;2023-04-06T00:23:32;1.90;99.90
40291;DHT22;26000;48.304;13.626;2023-04-06T00:25:58;1.90;99.90
40291;DHT22;26000;48.304;13.626;2023-04-06T00:28:23;1.90;99.90
40291;DHT22;26000;48.304;13.626;2023-04-06T00:30:52;1.90;99.90
40291;DHT22;26000;48.304;13.626;2023-04-06T00:33:19;1.90;99.90
40291;DHT22;26000;48.304;13.626;2023-04-06T00:35:45;1.80;99.90
40291;DHT22;26000;48.304;13.626;2023-04-06T00:38:12;1.80;99.90
40291;DHT22;26000;48.304;13.626;2023-04-06T00:40:37;1.80;99.90
40291;DHT22;26000;48.304;13.626;2023-04-06T00:43:05;1.80;99.90
40291;DHT22;26000;48.304;13.626;2023-04-06T00:45:31;1.80;99.90
40291;DHT22;26000;48.304;13.626;2023-04-06T00:47:57;1.80;99.90
40291;DHT22;26000;48.304;13.626;2023-04-06T00:50:23;1.80;99.90
40291;DHT22;26000;48.304;13.626;2023-04-06T00:52:49;1.80;99.90
40291;DHT22;26000;48.304;13.626;2023-04-06T00:55:14;1.60;99.90
40291;DHT22;26000;48.304;13.626;2023-04-06T00:57:40;1.70;99.90
40291;DHT22;26000;48.304;13.626;2023-04-06T01:00:06;1.60;99.90
40291;DHT22;26000;48.304;13.626;2023-04-06T01:02:32;1.70;99.90
40291;DHT22;26000;48.304;13.626;2023-04-06T01:04:58;1.60;99.90
40291;DHT22;26000;48.304;13.626;2023-04-06T01:07:24;1.50;99.90
40291;DHT22;26000;48.304;13.626;2023-04-06T01:09:50;1.50;99.90
40291;DHT22;26000;48.304;13.626;2023-04-06T01:12:18;1.50;99.90
40291;DHT22;26000;48.304;13.626;2023-04-06T01:14:43;1.50;99.90
40291;DHT22;26000;48.304;13.626;2023-04-06T01:17:09;1.50;99.90
40291;DHT22;26000;48.304;13.626;2023-04-06T01:19:36;1.60;99.90
40291;DHT22;26000;48.304;13.626;2023-04-06T01:22:02;1.60;99.90
40291;DHT22;26000;48.304;13.626;2023-04-06T01:24:27;1.50;99.90
40291;DHT22;26000;48.304;13.626;2023-04-06T01:26:53;1.50;99.90
40291;DHT22;26000;48.304;13.626;2023-04-06T01:29:19;1.40;99.90
40291;DHT22;26000;48.304;13.626;2023-04-06T01:31:44;1.50;99.90
40291;DHT22;26000;48.304;13.626;2023-04-06T01:34:10;1.30;99.90
40291;DHT22;26000;48.304;13.626;2023-04-06T01:36:36;1.30;99.90
40291;DHT22;26000;48.304;13.626;2023-04-06T01:39:02;1.30;99.90
40291;DHT22;26000;48.304;13.626;2023-04-06T01:41:27;1.30;99.90
40291;DHT22;26000;48.304;13.626;2023-04-06T01:43:53;1.30;99.90
40291;DHT22;26000;48.304;13.626;2023-04-06T01:46:20;1.30;99.90
40291;DHT22;26000;48.304;13.626;2023-04-06T01:48:45;1.20;99.90
40291;DHT22;26000;48.304;13.626;2023-04-06T01:51:11;1.20;99.90
40291;DHT22;26000;48.304;13.626;2023-04-06T01:53:37;1.20;99.90
40291;DHT22;26000;48.304;13.626;2023-04-06T01:56:03;1.20;99.90
40291;DHT22;26000;48.304;13.626;2023-04-06T01:58:28;1.20;99.90
40291;DHT22;26000;48.304;13.626;2023-04-06T02:00:54;1.20;99.90
40291;DHT22;26000;48.304;13.626;2023-04-06T02:03:19;1.20;99.90
40291;DHT22;26000;48.304;13.626;2023-04-06T02:05:45;1.10;99.90
40291;DHT22;26000;48.304;13.626;2023-04-06T02:08:11;1.10;99.90
40291;DHT22;26000;48.304;13.626;2023-04-06T02:10:36;1.10;99.90
40291;DHT22;26000;48.304;13.626;2023-04-06T02:13:02;0.90;99.90
40291;DHT22;26000;48.304;13.626;2023-04-06T02:15:28;1.00;99.90
40291;DHT22;26000;48.304;13.626;2023-04-06T02:17:53;1.00;99.90
40291;DHT22;26000;48.304;13.626;2023-04-06T02:20:19;1.00;99.90
40291;DHT22;26000;48.304;13.626;2023-04-06T02:22:45;1.00;99.90
40291;DHT22;26000;48.304;13.626;2023-04-06T02:25:11;1.10;99.90
40291;DHT22;26000;48.304;13.626;2023-04-06T02:27:37;1.00;99.90
40291;DHT22;26000;48.304;13.626;2023-04-06T02:30:04;1.00;99.90
40291;DHT22;26000;48.304;13.626;2023-04-06T02:32:30;1.00;99.90
40291;DHT22;26000;48.304;13.626;2023-04-06T02:34:55;1.10;99.90
40291;DHT22;26000;48.304;13.626;2023-04-06T02:37:21;1.10;99.90
40291;DHT22;26000;48.304;13.626;2023-04-06T02:39:48;0.90;99.90
40291;DHT22;26000;48.304;13.626;2023-04-06T02:42:14;0.90;99.90
40291;DHT22;26000;48.304;13.626;2023-04-06T02:44:41;0.80;99.90
40291;DHT22;26000;48.304;13.626;2023-04-06T02:47:07;0.80;99.90
40291;DHT22;26000;48.304;13.626;2023-04-06T02:49:32;0.80;99.90
40291;DHT22;26000;48.304;13.626;2023-04-06T02:51:58;0.90;99.90
40291;DHT22;26000;48.304;13.626;2023-04-06T02:54:23;1.00;99.90
40291;DHT22;26000;48.304;13.626;2023-04-06T02:56:49;0.90;99.90
40291;DHT22;26000;48.304;13.626;2023-04-06T02:59:15;1.00;99.90
40291;DHT22;26000;48.304;13.626;2023-04-06T03:01:40;0.80;99.90
40291;DHT22;26000;48.304;13.626;2023-04-06T03:04:06;0.80;99.90
40291;DHT22;26000;48.304;13.626;2023-04-06T03:06:32;0.80;99.90
40291;DHT22;26000;48.304;13.626;2023-04-06T03:08:57;0.70;99.90
40291;DHT22;26000;48.304;13.626;2023-04-06T03:11:23;0.70;99.90
40291;DHT22;26000;48.304;13.626;2023-04-06T03:13:49;0.70;99.90
40291;DHT22;26000;48.304;13.626;2023-04-06T03:16:15;0.70;99.90
40291;DHT22;26000;48.304;13.626;2023-04-06T03:18:40;0.60;99.90
40291;DHT22;26000;48.304;13.626;2023-04-06T03:21:06;0.60;99.90
40291;DHT22;26000;48.304;13.626;2023-04-06T03:23:32;0.70;99.90
40291;DHT22;26000;48.304;13.626;2023-04-06T03:25:57;0.60;99.90
40291;DHT22;26000;48.304;13.626;2023-04-06T03:28:23;0.50;99.90
40291;DHT22;26000;48.304;13.626;2023-04-06T03:30:49;0.60;99.90
40291;DHT22;26000;48.304;13.626;2023-04-06T03:33:15;0.70;99.90
40291;DHT22;26000;48.304;13.626;2023-04-06T03:35:40;0.60;99.90
40291;DHT22;26000;48.304;13.626;2023-04-06T03:38:06;0.70;99.90
40291;DHT22;26000;48.304;13.626;2023-04-06T03:40:31;0.70;99.90
40291;DHT22;26000;48.304;13.626;2023-04-06T03:42:57;0.70;99.90
40291;DHT22;26000;48.304;13.626;2023-04-06T03:45:23;0.70;99.90
40291;DHT22;26000;48.304;13.626;2023-04-06T03:47:49;0.70;99.90
40291;DHT22;26000;48.304;13.626;2023-04-06T03:50:14;0.70;99.90
40291;DHT22;26000;48.304;13.626;2023-04-06T03:52:40;0.60;99.90
40291;DHT22;26000;48.304;13.626;2023-04-06T03:55:07;0.60;99.90
40291;DHT22;26000;48.304;13.626;2023-04-06T03:57:32;0.50;99.90
40291;DHT22;26000;48.304;13.626;2023-04-06T03:59:58;0.40;99.90
40291;DHT22;26000;48.304;13.626;2023-04-06T04:02:24;0.40;99.90
40291;DHT22;26000;48.304;13.626;2023-04-06T04:04:49;0.40;99.90
40291;DHT22;26000;48.304;13.626;2023-04-06T04:07:15;0.30;99.90
40291;DHT22;26000;48.304;13.626;2023-04-06T04:09:41;0.30;99.90
40291;DHT22;26000;48.304;13.626;2023-04-06T04:12:06;0.30;99.90
40291;DHT22;26000;48.304;13.626;2023-04-06T04:14:32;0.30;99.90
40291;DHT22;26000;48.304;13.626;2023-04-06T04:16:58;0.30;99.90
40291;DHT22;26000;48.304;13.626;2023-04-06T04:19:23;0.30;99.90
40291;DHT22;26000;48.304;13.626;2023-04-06T04:21:49;0.10;99.90
40291;DHT22;26000;48.304;13.626;2023-04-06T04:24:15;0.20;99.90
40291;DHT22;26000;48.304;13.626;2023-04-06T04:26:40;0.20;99.90
40291;DHT22;26000;48.304;13.626;2023-04-06T04:29:06;0.20;99.90
40291;DHT22;26000;48.304;13.626;2023-04-06T04:31:32;0.10;99.90
40291;DHT22;26000;48.304;13.626;2023-04-06T04:34:00;0.10;99.90
40291;DHT22;26000;48.304;13.626;2023-04-06T04:36:26;0.20;99.90
40291;DHT22;26000;48.304;13.626;2023-04-06T04:38:52;0.20;99.90
40291;DHT22;26000;48.304;13.626;2023-04-06T04:41:18;0.20;99.90
40291;DHT22;26000;48.304;13.626;2023-04-06T04:43:43;0.10;99.90
40291;DHT22;26000;48.304;13.626;2023-04-06T04:46:10;0.10;99.90
40291;DHT22;26000;48.304;13.626;2023-04-06T04:48:35;0.20;99.90
40291;DHT22;26000;48.304;13.626;2023-04-06T04:51:01;0.20;99.90
40291;DHT22;26000;48.304;13.626;2023-04-06T04:53:27;0.30;99.90
40291;DHT22;26000;48.304;13.626;2023-04-06T04:55:53;0.30;99.90
40291;DHT22;26000;48.304;13.626;2023-04-06T04:58:18;0.30;99.90
40291;DHT22;26000;48.304;13.626;2023-04-06T05:00:45;0.40;99.90
40291;DHT22;26000;48.304;13.626;2023-04-06T05:03:20;0.50;99.90
40291;DHT22;26000;48.304;13.626;2023-04-06T05:05:47;0.80;99.90
40291;DHT22;26000;48.304;13.626;2023-04-06T05:08:12;1.10;99.90
40291;DHT22;26000;48.304;13.626;2023-04-06T05:10:38;1.70;99.90
40291;DHT22;26000;48.304;13.626;2023-04-06T05:13:04;2.40;99.90
40291;DHT22;26000;48.304;13.626;2023-04-06T05:15:29;3.20;99.90
40291;DHT22;26000;48.304;13.626;2023-04-06T05:17:55;3.60;99.90
40291;DHT22;26000;48.304;13.626;2023-04-06T05:20:21;4.10;99.90
40291;DHT22;26000;48.304;13.626;2023-04-06T05:22:47;4.50;99.90
40291;DHT22;26000;48.304;13.626;2023-04-06T05:25:13;4.80;99.90
40291;DHT22;26000;48.304;13.626;2023-04-06T05:27:39;5.10;99.90
40291;DHT22;26000;48.304;13.626;2023-04-06T05:30:06;5.00;99.90
40291;DHT22;26000;48.304;13.626;2023-04-06T05:32:32;5.00;99.90
40291;DHT22;26000;48.304;13.626;2023-04-06T05:34:58;4.90;99.90
40291;DHT22;26000;48.304;13.626;2023-04-06T05:37:24;4.90;99.90
40291;DHT22;26000;48.304;13.626;2023-04-06T05:39:49;4.90;99.90
40291;DHT22;26000;48.304;13.626;2023-04-06T05:42:15;4.70;99.90
40291;DHT22;26000;48.304;13.626;2023-04-06T05:44:42;4.60;99.90
40291;DHT22;26000;48.304;13.626;2023-04-06T05:47:07;4.40;99.90
40291;DHT22;26000;48.304;13.626;2023-04-06T05:49:33;4.30;99.90
40291;DHT22;26000;48.304;13.626;2023-04-06T05:52:00;4.30;99.90
40291;DHT22;26000;48.304;13.626;2023-04-06T05:54:26;4.30;99.90
40291;DHT22;26000;48.304;13.626;2023-04-06T05:56:51;4.30;99.90
40291;DHT22;26000;48.304;13.626;2023-04-06T05:59:17;4.40;99.90
40291;DHT22;26000;48.304;13.626;2023-04-06T06:01:42;4.60;99.90
40291;DHT22;26000;48.304;13.626;2023-04-06T06:04:08;4.90;99.90
40291;DHT22;26000;48.304;13.626;2023-04-06T06:06:34;5.10;99.90
40291;DHT22;26000;48.304;13.626;2023-04-06T06:09:00;5.40;99.90
40291;DHT22;26000;48.304;13.626;2023-04-06T06:11:27;5.60;99.90
40291;DHT22;26000;48.304;13.626;2023-04-06T06:13:52;5.80;99.90
40291;DHT22;26000;48.304;13.626;2023-04-06T06:16:19;6.10;99.90
40291;DHT22;26000;48.304;13.626;2023-04-06T06:18:44;6.30;99.90
40291;DHT22;26000;48.304;13.626;2023-04-06T06:21:10;6.60;99.90
40291;DHT22;26000;48.304;13.626;2023-04-06T06:23:38;6.80;99.30
40291;DHT22;26000;48.304;13.626;2023-04-06T06:26:03;7.00;98.20
40291;DHT22;26000;48.304;13.626;2023-04-06T06:28:29;7.10;97.40
40291;DHT22;26000;48.304;13.626;2023-04-06T06:30:55;7.20;97.50
40291;DHT22;26000;48.304;13.626;2023-04-06T06:33:21;7.40;97.90
40291;DHT22;26000;48.304;13.626;2023-04-06T06:35:47;7.60;96.80
40291;DHT22;26000;48.304;13.626;2023-04-06T06:38:12;7.90;95.70
40291;DHT22;26000;48.304;13.626;2023-04-06T06:40:39;8.20;95.20
40291;DHT22;26000;48.304;13.626;2023-04-06T06:43:05;8.50;95.70
40291;DHT22;26000;48.304;13.626;2023-04-06T06:45:31;8.70;94.30
40291;DHT22;26000;48.304;13.626;2023-04-06T06:47:56;8.90;95.00
40291;DHT22;26000;48.304;13.626;2023-04-06T06:50:22;9.00;94.60
40291;DHT22;26000;48.304;13.626;2023-04-06T06:52:47;9.20;93.30
40291;DHT22;26000;48.304;13.626;2023-04-06T06:55:13;9.40;94.50
40291;DHT22;26000;48.304;13.626;2023-04-06T06:57:39;9.50;92.80
40291;DHT22;26000;48.304;13.626;2023-04-06T07:00:06;9.80;93.00
40291;DHT22;26000;48.304;13.626;2023-04-06T07:02:36;10.10;91.70
40291;DHT22;26000;48.304;13.626;2023-04-06T07:05:02;10.10;90.60
40291;DHT22;26000;48.304;13.626;2023-04-06T07:07:28;10.20;90.70
40291;DHT22;26000;48.304;13.626;2023-04-06T07:09:54;10.40;85.90
40291;DHT22;26000;48.304;13.626;2023-04-06T07:12:20;10.50;82.40
40291;DHT22;26000;48.304;13.626;2023-04-06T07:14:45;10.60;85.80
40291;DHT22;26000;48.304;13.626;2023-04-06T07:17:11;10.80;82.90
40291;DHT22;26000;48.304;13.626;2023-04-06T07:19:37;10.80;85.60
40291;DHT22;26000;48.304;13.626;2023-04-06T07:22:02;10.90;81.00
40291;DHT22;26000;48.304;13.626;2023-04-06T07:24:28;11.00;82.60
40291;DHT22;26000;48.304;13.626;2023-04-06T07:26:54;11.10;84.10
40291;DHT22;26000;48.304;13.626;2023-04-06T07:29:21;11.30;82.90
40291;DHT22;26000;48.304;13.626;2023-04-06T07:31:46;11.40;81.50
40291;DHT22;26000;48.304;13.626;2023-04-06T07:34:12;11.50;80.90
40291;DHT22;26000;48.304;13.626;2023-04-06T07:36:37;11.60;77.80
40291;DHT22;26000;48.304;13.626;2023-04-06T07:39:03;11.60;79.20
40291;DHT22;26000;48.304;13.626;2023-04-06T07:41:29;11.60;77.40
40291;DHT22;26000;48.304;13.626;2023-04-06T07:43:54;11.60;78.70
40291;DHT22;26000;48.304;13.626;2023-04-06T07:46:20;11.80;79.80
40291;DHT22;26000;48.304;13.626;2023-04-06T07:48:46;11.90;80.30
40291;DHT22;26000;48.304;13.626;2023-04-06T07:51:12;11.90;78.00
40291;DHT22;26000;48.304;13.626;2023-04-06T07:53:40;12.10;77.50
40291;DHT22;26000;48.304;13.626;2023-04-06T07:56:05;12.20;76.50
40291;DHT22;26000;48.304;13.626;2023-04-06T07:58:31;12.30;75.40
40291;DHT22;26000;48.304;13.626;2023-04-06T08:00:57;12.40;75.10
40291;DHT22;26000;48.304;13.626;2023-04-06T08:03:23;12.40;75.20
40291;DHT22;26000;48.304;13.626;2023-04-06T08:05:54;12.30;73.40
40291;DHT22;26000;48.304;13.626;2023-04-06T08:08:20;12.10;72.10
40291;DHT22;26000;48.304;13.626;2023-04-06T08:10:47;12.20;72.20
40291;DHT22;26000;48.304;13.626;2023-04-06T08:13:14;12.10;70.70
40291;DHT22;26000;48.304;13.626;2023-04-06T08:15:39;12.20;70.70
40291;DHT22;26000;48.304;13.626;2023-04-06T08:18:05;12.30;70.40
40291;DHT22;26000;48.304;13.626;2023-04-06T08:20:31;12.40;71.10
40291;DHT22;26000;48.304;13.626;2023-04-06T08:22:57;12.30;71.50
40291;DHT22;26000;48.304;13.626;2023-04-06T08:25:22;12.50;73.50
40291;DHT22;26000;48.304;13.626;2023-04-06T08:27:48;12.40;73.00
40291;DHT22;26000;48.304;13.626;2023-04-06T08:30:14;12.60;71.40
40291;DHT22;26000;48.304;13.626;2023-04-06T08:32:41;12.90;70.90
40291;DHT22;26000;48.304;13.626;2023-04-06T08:35:07;13.00;73.50
40291;DHT22;26000;48.304;13.626;2023-04-06T08:37:33;13.10;71.60
40291;DHT22;26000;48.304;13.626;2023-04-06T08:39:59;13.30;72.60
40291;DHT22;26000;48.304;13.626;2023-04-06T08:42:26;13.50;73.80
40291;DHT22;26000;48.304;13.626;2023-04-06T08:44:54;13.50;70.80
40291;DHT22;26000;48.304;13.626;2023-04-06T08:47:21;13.50;72.20
40291;DHT22;26000;48.304;13.626;2023-04-06T08:49:47;13.70;71.60
40291;DHT22;26000;48.304;13.626;2023-04-06T08:52:13;13.90;74.40
40291;DHT22;26000;48.304;13.626;2023-04-06T08:54:40;13.90;74.30
40291;DHT22;26000;48.304;13.626;2023-04-06T08:57:07;14.10;68.60
40291;DHT22;26000;48.304;13.626;2023-04-06T08:59:34;14.20;67.30
40291;DHT22;26000;48.304;13.626;2023-04-06T09:02:01;14.20;68.10
40291;DHT22;26000;48.304;13.626;2023-04-06T09:04:28;13.90;65.70
40291;DHT22;26000;48.304;13.626;2023-04-06T09:06:54;13.70;66.50
40291;DHT22;26000;48.304;13.626;2023-04-06T09:09:19;13.60;67.10
40291;DHT22;26000;48.304;13.626;2023-04-06T09:11:50;13.70;66.40
40291;DHT22;26000;48.304;13.626;2023-04-06T09:14:16;13.80;68.60
40291;DHT22;26000;48.304;13.626;2023-04-06T09:16:44;14.00;65.40
40291;DHT22;26000;48.304;13.626;2023-04-06T09:19:11;14.10;66.20
40291;DHT22;26000;48.304;13.626;2023-04-06T09:21:38;13.90;64.50
40291;DHT22;26000;48.304;13.626;2023-04-06T09:24:06;14.00;65.80
40291;DHT22;26000;48.304;13.626;2023-04-06T09:26:43;14.00;65.30
40291;DHT22;26000;48.304;13.626;2023-04-06T09:29:09;14.10;64.20
40291;DHT22;26000;48.304;13.626;2023-04-06T09:31:35;14.10;68.80
40291;DHT22;26000;48.304;13.626;2023-04-06T09:34:01;14.20;67.50
40291;DHT22;26000;48.304;13.626;2023-04-06T09:36:35;14.30;65.80
40291;DHT22;26000;48.304;13.626;2023-04-06T09:39:04;14.40;66.90
40291;DHT22;26000;48.304;13.626;2023-04-06T09:41:31;14.50;65.10
40291;DHT22;26000;48.304;13.626;2023-04-06T09:44:04;14.40;66.60
40291;DHT22;26000;48.304;13.626;2023-04-06T09:46:34;14.60;66.30
40291;DHT22;26000;48.304;13.626;2023-04-06T09:49:02;14.70;68.10
40291;DHT22;26000;48.304;13.626;2023-04-06T09:51:31;14.80;69.00
40291;DHT22;26000;48.304;13.626;2023-04-06T09:53:57;14.80;64.30
40291;DHT22;26000;48.304;13.626;2023-04-06T09:56:33;14.60;67.50
40291;DHT22;26000;48.304;13.626;2023-04-06T09:59:07;14.60;67.40
40291;DHT22;26000;48.304;13.626;2023-04-06T10:01:33;14.50;66.50
40291;DHT22;26000;48.304;13.626;2023-04-06T10:04:19;14.50;68.60
40291;DHT22;26000;48.304;13.626;2023-04-06T10:06:47;14.70;67.80
40291;DHT22;26000;48.304;13.626;2023-04-06T10:09:18;15.00;67.10
40291;DHT22;26000;48.304;13.626;2023-04-06T10:11:48;15.00;66.50
40291;DHT22;26000;48.304;13.626;2023-04-06T10:14:15;14.90;63.70
40291;DHT22;26000;48.304;13.626;2023-04-06T10:16:41;15.00;63.40
40291;DHT22;26000;48.304;13.626;2023-04-06T10:19:17;14.60;62.30
40291;DHT22;26000;48.304;13.626;2023-04-06T10:21:45;14.60;63.70
40291;DHT22;26000;48.304;13.626;2023-04-06T10:24:13;14.80;61.90
40291;DHT22;26000;48.304;13.626;2023-04-06T10:26:39;14.70;63.40
40291;DHT22;26000;48.304;13.626;2023-04-06T10:29:06;14.40;66.90
40291;DHT22;26000;48.304;13.626;2023-04-06T10:31:32;13.60;64.20
40291;DHT22;26000;48.304;13.626;2023-04-06T10:34:01;13.70;65.30
40291;DHT22;26000;48.304;13.626;2023-04-06T10:36:32;13.60;64.60
40291;DHT22;26000;48.304;13.626;2023-04-06T10:39:03;13.60;67.40
40291;DHT22;26000;48.304;13.626;2023-04-06T10:41:40;13.60;65.70
40291;DHT22;26000;48.304;13.626;2023-04-06T10:44:06;13.20;64.90
40291;DHT22;26000;48.304;13.626;2023-04-06T10:46:33;12.90;65.90
40291;DHT22;26000;48.304;13.626;2023-04-06T10:49:10;13.00;66.80
40291;DHT22;26000;48.304;13.626;2023-04-06T10:51:38;13.30;66.60
40291;DHT22;26000;48.304;13.626;2023-04-06T10:54:03;13.50;71.50
40291;DHT22;26000;48.304;13.626;2023-04-06T10:56:31;13.30;64.60
40291;DHT22;26000;48.304;13.626;2023-04-06T10:58:59;13.10;63.30
40291;DHT22;26000;48.304;13.626;2023-04-06T11:01:25;13.20;66.40
40291;DHT22;26000;48.304;13.626;2023-04-06T11:03:56;13.40;71.00
40291;DHT22;26000;48.304;13.626;2023-04-06T11:06:30;13.60;69.70
40291;DHT22;26000;48.304;13.626;2023-04-06T11:08:57;13.70;66.30
40291;DHT22;26000;48.304;13.626;2023-04-06T11:11:25;13.90;70.00
40291;DHT22;26000;48.304;13.626;2023-04-06T11:13:55;13.90;69.00
40291;DHT22;26000;48.304;13.626;2023-04-06T11:21:17;13.80;65.00
40291;DHT22;26000;48.304;13.626;2023-04-06T11:23:43;13.80;68.00
40291;DHT22;26000;48.304;13.626;2023-04-06T11:26:13;13.70;66.20
40291;DHT22;26000;48.304;13.626;2023-04-06T11:28:42;13.70;66.80
40291;DHT22;26000;48.304;13.626;2023-04-06T11:31:09;13.40;64.00
40291;DHT22;26000;48.304;13.626;2023-04-06T11:33:39;13.00;62.50
40291;DHT22;26000;48.304;13.626;2023-04-06T11:36:05;12.90;64.60
40291;DHT22;26000;48.304;13.626;2023-04-06T11:38:31;13.00;66.00
40291;DHT22;26000;48.304;13.626;2023-04-06T11:40:57;13.00;64.20
40291;DHT22;26000;48.304;13.626;2023-04-06T11:43:47;12.90;65.00
40291;DHT22;26000;48.304;13.626;2023-04-06T11:46:17;12.60;65.60
40291;DHT22;26000;48.304;13.626;2023-04-06T11:48:44;12.30;65.70
40291;DHT22;26000;48.304;13.626;2023-04-06T11:51:10;12.40;67.90
40291;DHT22;26000;48.304;13.626;2023-04-06T11:53:46;12.30;70.20
40291;DHT22;26000;48.304;13.626;2023-04-06T11:56:26;12.20;66.70
40291;DHT22;26000;48.304;13.626;2023-04-06T11:58:55;12.10;65.60
40291;DHT22;26000;48.304;13.626;2023-04-06T12:01:21;12.10;64.20
40291;DHT22;26000;48.304;13.626;2023-04-06T12:03:47;12.00;64.20
40291;DHT22;26000;48.304;13.626;2023-04-06T12:06:13;12.00;67.00
40291;DHT22;26000;48.304;13.626;2023-04-06T12:08:39;12.20;70.10
40291;DHT22;26000;48.304;13.626;2023-04-06T12:11:05;12.30;71.90
40291;DHT22;26000;48.304;13.626;2023-04-06T12:13:31;12.40;69.20
40291;DHT22;26000;48.304;13.626;2023-04-06T12:15:56;12.30;67.60
40291;DHT22;26000;48.304;13.626;2023-04-06T12:18:22;12.20;67.30
40291;DHT22;26000;48.304;13.626;2023-04-06T12:20:47;12.20;70.40
40291;DHT22;26000;48.304;13.626;2023-04-06T12:23:13;12.00;68.60
40291;DHT22;26000;48.304;13.626;2023-04-06T12:25:40;12.00;72.30
40291;DHT22;26000;48.304;13.626;2023-04-06T12:28:06;12.20;69.50
40291;DHT22;26000;48.304;13.626;2023-04-06T12:30:32;12.20;70.20
40291;DHT22;26000;48.304;13.626;2023-04-06T12:32:58;12.10;70.20
40291;DHT22;26000;48.304;13.626;2023-04-06T12:35:23;12.10;72.20
40291;DHT22;26000;48.304;13.626;2023-04-06T12:37:49;11.90;67.10
40291;DHT22;26000;48.304;13.626;2023-04-06T12:40:15;11.70;66.60
40291;DHT22;26000;48.304;13.626;2023-04-06T12:42:40;11.60;70.50
40291;DHT22;26000;48.304;13.626;2023-04-06T12:45:08;11.60;74.40
40291;DHT22;26000;48.304;13.626;2023-04-06T12:47:33;11.70;70.30
40291;DHT22;26000;48.304;13.626;2023-04-06T12:50:01;11.60;68.20
40291;DHT22;26000;48.304;13.626;2023-04-06T12:52:27;11.70;67.60
40291;DHT22;26000;48.304;13.626;2023-04-06T12:54:56;11.90;73.30
40291;DHT22;26000;48.304;13.626;2023-04-06T12:57:21;11.90;68.00
40291;DHT22;26000;48.304;13.626;2023-04-06T12:59:47;11.80;68.30
40291;DHT22;26000;48.304;13.626;2023-04-06T13:02:13;11.70;70.00
40291;DHT22;26000;48.304;13.626;2023-04-06T13:04:38;11.50;68.80
40291;DHT22;26000;48.304;13.626;2023-04-06T13:07:04;11.30;66.70
40291;DHT22;26000;48.304;13.626;2023-04-06T13:09:30;11.20;66.40
40291;DHT22;26000;48.304;13.626;2023-04-06T13:11:56;11.20;69.30
40291;DHT22;26000;48.304;13.626;2023-04-06T13:14:23;11.20;72.20
40291;DHT22;26000;48.304;13.626;2023-04-06T13:16:48;11.00;70.50
40291;DHT22;26000;48.304;13.626;2023-04-06T13:19:14;11.10;71.10
40291;DHT22;26000;48.304;13.626;2023-04-06T13:21:40;11.20;71.20
40291;DHT22;26000;48.304;13.626;2023-04-06T13:24:06;11.30;70.10
40291;DHT22;26000;48.304;13.626;2023-04-06T13:26:32;11.30;70.20
40291;DHT22;26000;48.304;13.626;2023-04-06T13:28:59;11.40;70.50
40291;DHT22;26000;48.304;13.626;2023-04-06T13:31:26;11.30;69.50
40291;DHT22;26000;48.304;13.626;2023-04-06T13:33:51;11.30;68.50
40291;DHT22;26000;48.304;13.626;2023-04-06T13:36:17;11.30;67.90
40291;DHT22;26000;48.304;13.626;2023-04-06T13:38:42;11.40;68.90
40291;DHT22;26000;48.304;13.626;2023-04-06T13:41:08;11.30;69.60
40291;DHT22;26000;48.304;13.626;2023-04-06T13:43:34;11.40;70.30
40291;DHT22;26000;48.304;13.626;2023-04-06T13:45:59;11.30;71.60
40291;DHT22;26000;48.304;13.626;2023-04-06T13:48:26;11.40;73.60
40291;DHT22;26000;48.304;13.626;2023-04-06T13:50:52;11.60;73.00
40291;DHT22;26000;48.304;13.626;2023-04-06T13:53:18;11.60;70.20
40291;DHT22;26000;48.304;13.626;2023-04-06T13:55:44;11.70;72.40
40291;DHT22;26000;48.304;13.626;2023-04-06T13:58:09;11.70;71.30
40291;DHT22;26000;48.304;13.626;2023-04-06T14:00:35;11.50;70.10
40291;DHT22;26000;48.304;13.626;2023-04-06T14:03:02;11.40;71.10
40291;DHT22;26000;48.304;13.626;2023-04-06T14:05:34;11.40;71.70
40291;DHT22;26000;48.304;13.626;2023-04-06T14:07:59;11.40;70.10
40291;DHT22;26000;48.304;13.626;2023-04-06T14:10:25;11.30;71.00
40291;DHT22;26000;48.304;13.626;2023-04-06T14:12:52;11.20;69.80
40291;DHT22;26000;48.304;13.626;2023-04-06T14:15:18;11.30;70.60
40291;DHT22;26000;48.304;13.626;2023-04-06T14:17:44;11.30;72.60
40291;DHT22;26000;48.304;13.626;2023-04-06T14:20:10;11.40;73.60
40291;DHT22;26000;48.304;13.626;2023-04-06T14:22:40;11.60;72.00
40291;DHT22;26000;48.304;13.626;2023-04-06T14:25:06;11.60;71.80
40291;DHT22;26000;48.304;13.626;2023-04-06T14:27:32;11.40;71.70
40291;DHT22;26000;48.304;13.626;2023-04-06T14:29:58;11.30;70.10
40291;DHT22;26000;48.304;13.626;2023-04-06T14:32:23;11.30;72.30
40291;DHT22;26000;48.304;13.626;2023-04-06T14:34:50;11.30;70.50
40291;DHT22;26000;48.304;13.626;2023-04-06T14:37:15;11.40;72.80
40291;DHT22;26000;48.304;13.626;2023-04-06T14:39:42;11.40;69.80
40291;DHT22;26000;48.304;13.626;2023-04-06T14:42:08;11.30;71.70
40291;DHT22;26000;48.304;13.626;2023-04-06T14:44:34;11.30;70.90
40291;DHT22;26000;48.304;13.626;2023-04-06T14:47:02;11.30;73.80
40291;DHT22;26000;48.304;13.626;2023-04-06T14:49:29;11.20;72.00
40291;DHT22;26000;48.304;13.626;2023-04-06T14:51:55;11.20;71.50
40291;DHT22;26000;48.304;13.626;2023-04-06T14:54:20;11.20;72.70
40291;DHT22;26000;48.304;13.626;2023-04-06T14:56:46;11.40;69.20
40291;DHT22;26000;48.304;13.626;2023-04-06T14:59:11;11.30;69.50
40291;DHT22;26000;48.304;13.626;2023-04-06T15:01:37;11.20;71.20
40291;DHT22;26000;48.304;13.626;2023-04-06T15:04:03;11.20;71.60
40291;DHT22;26000;48.304;13.626;2023-04-06T15:06:29;11.30;69.80
40291;DHT22;26000;48.304;13.626;2023-04-06T15:08:55;11.30;71.70
40291;DHT22;26000;48.304;13.626;2023-04-06T15:11:21;11.30;71.20
40291;DHT22;26000;48.304;13.626;2023-04-06T15:13:47;11.20;71.10
40291;DHT22;26000;48.304;13.626;2023-04-06T15:16:12;11.30;71.30
40291;DHT22;26000;48.304;13.626;2023-04-06T15:18:39;11.30;72.40
40291;DHT22;26000;48.304;13.626;2023-04-06T15:21:05;11.40;71.90
40291;DHT22;26000;48.304;13.626;2023-04-06T15:23:32;11.40;70.70